Kansas City, Missouri
Traffic Map
Current Weather Conditions
Kansas City, Missouri
Clear
Clear
69°
Feels Like: 69°
Wind Chill: 69° Ceiling: Unl
Heat Index: 69° Visibility: 10mi
Dew Point: 51° Wind: 9mph
Humidity: 53% Direction: 350° (N)
Pressure: 30.18in Gusts: 0mph
Raw Report DataKMKC 211854Z 35008KT 10SM CLR 21/11 A3018 RMK AO2 SLP214 T02060106
Traffic Incident Summary
Active as of:
Severity:
Category:
InformationThere was an issue retrieving the traffic information for this location. Please try a different location or try again shortly.
Advertisements